sensor_id;sensor_type;location;lat;lon;timestamp;P1;durP1;ratioP1;P2;durP2;ratioP2
16612;SDS011;8419;52.358;9.752;2024-02-16T00:00:07;6.68;;;1.75;;
16612;SDS011;8419;52.358;9.752;2024-02-16T00:02:57;3.50;;;1.70;;
16612;SDS011;8419;52.358;9.752;2024-02-16T00:05:43;3.25;;;1.80;;
16612;SDS011;8419;52.358;9.752;2024-02-16T00:08:30;2.05;;;1.40;;
16612;SDS011;8419;52.358;9.752;2024-02-16T00:11:16;4.05;;;1.48;;
16612;SDS011;8419;52.358;9.752;2024-02-16T00:14:01;4.07;;;1.73;;
16612;SDS011;8419;52.358;9.752;2024-02-16T00:16:47;3.03;;;1.70;;
16612;SDS011;8419;52.358;9.752;2024-02-16T00:19:33;2.58;;;1.70;;
16612;SDS011;8419;52.358;9.752;2024-02-16T00:22:19;2.50;;;1.58;;
16612;SDS011;8419;52.358;9.752;2024-02-16T00:25:05;4.10;;;1.87;;
16612;SDS011;8419;52.358;9.752;2024-02-16T00:27:52;5.03;;;1.30;;
16612;SDS011;8419;52.358;9.752;2024-02-16T00:30:38;1.92;;;1.70;;
16612;SDS011;8419;52.358;9.752;2024-02-16T00:33:25;3.17;;;1.73;;
16612;SDS011;8419;52.358;9.752;2024-02-16T00:36:13;3.97;;;2.12;;
16612;SDS011;8419;52.358;9.752;2024-02-16T00:38:59;3.25;;;1.50;;
16612;SDS011;8419;52.358;9.752;2024-02-16T00:41:45;3.00;;;1.37;;
16612;SDS011;8419;52.358;9.752;2024-02-16T00:44:30;4.68;;;1.58;;
16612;SDS011;8419;52.358;9.752;2024-02-16T00:47:17;2.72;;;1.75;;
16612;SDS011;8419;52.358;9.752;2024-02-16T00:50:02;2.85;;;1.50;;
16612;SDS011;8419;52.358;9.752;2024-02-16T00:52:52;3.72;;;1.52;;
16612;SDS011;8419;52.358;9.752;2024-02-16T00:55:38;3.45;;;1.60;;
16612;SDS011;8419;52.358;9.752;2024-02-16T00:58:26;3.83;;;1.65;;
16612;SDS011;8419;52.358;9.752;2024-02-16T01:01:11;2.70;;;1.67;;
16612;SDS011;8419;52.358;9.752;2024-02-16T01:03:58;2.55;;;1.60;;
16612;SDS011;8419;52.358;9.752;2024-02-16T01:06:44;2.05;;;1.35;;
16612;SDS011;8419;52.358;9.752;2024-02-16T01:09:30;2.97;;;1.50;;
16612;SDS011;8419;52.358;9.752;2024-02-16T01:12:16;1.90;;;1.48;;
16612;SDS011;8419;52.358;9.752;2024-02-16T01:15:02;2.33;;;1.50;;
16612;SDS011;8419;52.358;9.752;2024-02-16T01:17:48;4.32;;;1.50;;
16612;SDS011;8419;52.358;9.752;2024-02-16T01:20:33;2.67;;;1.60;;
16612;SDS011;8419;52.358;9.752;2024-02-16T01:23:19;4.18;;;1.62;;
16612;SDS011;8419;52.358;9.752;2024-02-16T01:26:05;2.20;;;1.48;;
16612;SDS011;8419;52.358;9.752;2024-02-16T01:28:51;6.25;;;1.62;;
16612;SDS011;8419;52.358;9.752;2024-02-16T01:31:36;2.60;;;1.42;;
16612;SDS011;8419;52.358;9.752;2024-02-16T01:34:22;2.72;;;1.52;;
16612;SDS011;8419;52.358;9.752;2024-02-16T01:37:08;6.03;;;1.70;;
16612;SDS011;8419;52.358;9.752;2024-02-16T01:39:54;2.37;;;1.33;;
16612;SDS011;8419;52.358;9.752;2024-02-16T01:42:40;3.28;;;1.52;;
16612;SDS011;8419;52.358;9.752;2024-02-16T01:45:26;5.32;;;1.55;;
16612;SDS011;8419;52.358;9.752;2024-02-16T01:48:11;5.35;;;1.50;;
16612;SDS011;8419;52.358;9.752;2024-02-16T01:50:59;3.03;;;1.20;;
16612;SDS011;8419;52.358;9.752;2024-02-16T01:53:46;3.47;;;1.65;;
16612;SDS011;8419;52.358;9.752;2024-02-16T01:56:31;1.75;;;1.50;;
16612;SDS011;8419;52.358;9.752;2024-02-16T01:59:17;3.80;;;1.50;;
16612;SDS011;8419;52.358;9.752;2024-02-16T02:02:03;2.33;;;1.30;;
16612;SDS011;8419;52.358;9.752;2024-02-16T02:04:49;3.28;;;1.40;;
16612;SDS011;8419;52.358;9.752;2024-02-16T02:07:35;2.35;;;1.60;;
16612;SDS011;8419;52.358;9.752;2024-02-16T02:10:21;4.80;;;1.67;;
16612;SDS011;8419;52.358;9.752;2024-02-16T02:13:07;2.58;;;1.12;;
16612;SDS011;8419;52.358;9.752;2024-02-16T02:15:53;1.60;;;1.30;;
16612;SDS011;8419;52.358;9.752;2024-02-16T02:18:39;2.95;;;1.45;;
16612;SDS011;8419;52.358;9.752;2024-02-16T02:21:25;2.47;;;1.30;;
16612;SDS011;8419;52.358;9.752;2024-02-16T02:24:10;2.58;;;1.50;;
16612;SDS011;8419;52.358;9.752;2024-02-16T02:26:56;3.78;;;1.77;;
16612;SDS011;8419;52.358;9.752;2024-02-16T02:29:42;2.87;;;1.60;;
16612;SDS011;8419;52.358;9.752;2024-02-16T02:32:28;2.95;;;1.23;;
16612;SDS011;8419;52.358;9.752;2024-02-16T02:35:14;3.78;;;1.67;;
16612;SDS011;8419;52.358;9.752;2024-02-16T02:38:00;3.67;;;1.40;;
16612;SDS011;8419;52.358;9.752;2024-02-16T02:40:47;3.40;;;1.62;;
16612;SDS011;8419;52.358;9.752;2024-02-16T02:43:32;3.50;;;1.33;;
16612;SDS011;8419;52.358;9.752;2024-02-16T02:46:18;2.78;;;1.33;;
16612;SDS011;8419;52.358;9.752;2024-02-16T02:49:04;5.95;;;1.42;;
16612;SDS011;8419;52.358;9.752;2024-02-16T02:51:50;1.75;;;1.30;;
16612;SDS011;8419;52.358;9.752;2024-02-16T02:54:37;1.67;;;1.50;;
16612;SDS011;8419;52.358;9.752;2024-02-16T02:57:23;3.35;;;1.20;;
16612;SDS011;8419;52.358;9.752;2024-02-16T03:00:09;1.25;;;1.00;;
16612;SDS011;8419;52.358;9.752;2024-02-16T03:02:56;2.00;;;1.35;;
16612;SDS011;8419;52.358;9.752;2024-02-16T03:05:42;2.00;;;1.40;;
16612;SDS011;8419;52.358;9.752;2024-02-16T03:08:27;1.80;;;1.30;;
16612;SDS011;8419;52.358;9.752;2024-02-16T03:11:13;3.97;;;1.30;;
16612;SDS011;8419;52.358;9.752;2024-02-16T03:13:59;1.17;;;0.90;;
16612;SDS011;8419;52.358;9.752;2024-02-16T03:16:44;2.97;;;1.30;;
16612;SDS011;8419;52.358;9.752;2024-02-16T03:19:30;3.30;;;1.48;;
16612;SDS011;8419;52.358;9.752;2024-02-16T03:22:16;3.70;;;1.55;;
16612;SDS011;8419;52.358;9.752;2024-02-16T03:25:02;2.45;;;1.40;;
16612;SDS011;8419;52.358;9.752;2024-02-16T03:27:49;3.72;;;1.65;;
16612;SDS011;8419;52.358;9.752;2024-02-16T03:30:34;3.37;;;1.45;;
16612;SDS011;8419;52.358;9.752;2024-02-16T03:33:23;3.35;;;1.58;;
16612;SDS011;8419;52.358;9.752;2024-02-16T03:36:09;2.78;;;1.40;;
16612;SDS011;8419;52.358;9.752;2024-02-16T03:38:54;2.10;;;1.40;;
16612;SDS011;8419;52.358;9.752;2024-02-16T03:41:40;2.35;;;1.60;;
16612;SDS011;8419;52.358;9.752;2024-02-16T03:44:26;1.83;;;1.35;;
16612;SDS011;8419;52.358;9.752;2024-02-16T03:47:11;2.47;;;1.30;;
16612;SDS011;8419;52.358;9.752;2024-02-16T03:49:58;5.35;;;1.67;;
16612;SDS011;8419;52.358;9.752;2024-02-16T03:52:43;2.62;;;1.60;;
16612;SDS011;8419;52.358;9.752;2024-02-16T03:55:29;6.87;;;1.67;;
16612;SDS011;8419;52.358;9.752;2024-02-16T03:58:17;4.75;;;1.33;;
16612;SDS011;8419;52.358;9.752;2024-02-16T04:01:04;2.70;;;1.30;;
16612;SDS011;8419;52.358;9.752;2024-02-16T04:03:51;1.37;;;1.10;;
16612;SDS011;8419;52.358;9.752;2024-02-16T04:06:37;2.25;;;1.10;;
16612;SDS011;8419;52.358;9.752;2024-02-16T04:09:23;2.05;;;1.58;;
16612;SDS011;8419;52.358;9.752;2024-02-16T04:12:12;3.97;;;1.85;;
16612;SDS011;8419;52.358;9.752;2024-02-16T04:14:57;2.50;;;1.37;;
16612;SDS011;8419;52.358;9.752;2024-02-16T04:17:42;2.37;;;1.42;;
16612;SDS011;8419;52.358;9.752;2024-02-16T04:20:28;2.42;;;1.27;;
16612;SDS011;8419;52.358;9.752;2024-02-16T04:23:13;1.85;;;1.20;;
16612;SDS011;8419;52.358;9.752;2024-02-16T04:25:59;2.30;;;1.25;;
16612;SDS011;8419;52.358;9.752;2024-02-16T04:28:44;3.42;;;1.35;;
16612;SDS011;8419;52.358;9.752;2024-02-16T04:31:30;4.70;;;1.30;;
16612;SDS011;8419;52.358;9.752;2024-02-16T04:34:15;2.35;;;1.30;;
16612;SDS011;8419;52.358;9.752;2024-02-16T04:37:01;2.83;;;1.15;;
16612;SDS011;8419;52.358;9.752;2024-02-16T04:39:47;2.60;;;1.30;;
16612;SDS011;8419;52.358;9.752;2024-02-16T04:42:32;2.03;;;1.12;;
16612;SDS011;8419;52.358;9.752;2024-02-16T04:45:18;2.70;;;1.15;;
16612;SDS011;8419;52.358;9.752;2024-02-16T04:48:04;3.50;;;1.42;;
16612;SDS011;8419;52.358;9.752;2024-02-16T04:50:51;1.10;;;1.00;;
16612;SDS011;8419;52.358;9.752;2024-02-16T04:53:37;2.40;;;1.20;;
16612;SDS011;8419;52.358;9.752;2024-02-16T04:56:25;2.78;;;1.15;;
16612;SDS011;8419;52.358;9.752;2024-02-16T04:59:12;2.30;;;1.20;;
16612;SDS011;8419;52.358;9.752;2024-02-16T05:01:57;4.00;;;1.20;;
16612;SDS011;8419;52.358;9.752;2024-02-16T05:04:43;2.80;;;1.10;;
16612;SDS011;8419;52.358;9.752;2024-02-16T05:07:29;2.25;;;1.58;;
16612;SDS011;8419;52.358;9.752;2024-02-16T05:10:15;1.52;;;1.10;;
16612;SDS011;8419;52.358;9.752;2024-02-16T05:13:01;3.47;;;1.15;;
16612;SDS011;8419;52.358;9.752;2024-02-16T05:15:47;3.28;;;1.40;;
16612;SDS011;8419;52.358;9.752;2024-02-16T05:18:33;3.55;;;1.10;;
16612;SDS011;8419;52.358;9.752;2024-02-16T05:21:18;1.35;;;1.00;;
16612;SDS011;8419;52.358;9.752;2024-02-16T05:24:05;4.62;;;1.35;;
16612;SDS011;8419;52.358;9.752;2024-02-16T05:26:51;2.15;;;0.95;;
16612;SDS011;8419;52.358;9.752;2024-02-16T05:29:37;2.53;;;1.12;;
16612;SDS011;8419;52.358;9.752;2024-02-16T05:32:25;4.30;;;1.25;;
16612;SDS011;8419;52.358;9.752;2024-02-16T05:35:12;4.00;;;1.10;;
16612;SDS011;8419;52.358;9.752;2024-02-16T05:38:00;3.05;;;1.30;;
16612;SDS011;8419;52.358;9.752;2024-02-16T05:40:51;2.87;;;1.30;;
16612;SDS011;8419;52.358;9.752;2024-02-16T05:43:38;1.83;;;1.10;;
16612;SDS011;8419;52.358;9.752;2024-02-16T05:46:24;2.25;;;1.33;;
16612;SDS011;8419;52.358;9.752;2024-02-16T05:49:10;1.92;;;1.17;;
16612;SDS011;8419;52.358;9.752;2024-02-16T05:51:56;1.77;;;1.33;;
16612;SDS011;8419;52.358;9.752;2024-02-16T05:55:00;2.87;;;1.50;;
16612;SDS011;8419;52.358;9.752;2024-02-16T05:57:45;1.60;;;0.98;;
16612;SDS011;8419;52.358;9.752;2024-02-16T06:00:32;1.77;;;1.20;;
16612;SDS011;8419;52.358;9.752;2024-02-16T06:03:19;1.90;;;1.20;;
16612;SDS011;8419;52.358;9.752;2024-02-16T06:06:06;4.55;;;1.65;;
16612;SDS011;8419;52.358;9.752;2024-02-16T06:08:53;1.77;;;1.60;;
16612;SDS011;8419;52.358;9.752;2024-02-16T06:11:39;3.78;;;1.70;;
16612;SDS011;8419;52.358;9.752;2024-02-16T06:14:26;2.75;;;1.35;;
16612;SDS011;8419;52.358;9.752;2024-02-16T06:17:13;4.18;;;1.60;;
16612;SDS011;8419;52.358;9.752;2024-02-16T06:19:59;9.43;;;1.48;;
16612;SDS011;8419;52.358;9.752;2024-02-16T06:22:48;2.08;;;1.37;;
16612;SDS011;8419;52.358;9.752;2024-02-16T06:25:34;2.00;;;1.33;;
16612;SDS011;8419;52.358;9.752;2024-02-16T06:28:20;2.50;;;1.40;;
16612;SDS011;8419;52.358;9.752;2024-02-16T06:31:07;2.80;;;1.40;;
16612;SDS011;8419;52.358;9.752;2024-02-16T06:33:53;1.30;;;1.00;;
16612;SDS011;8419;52.358;9.752;2024-02-16T06:36:40;2.62;;;1.30;;
16612;SDS011;8419;52.358;9.752;2024-02-16T06:39:25;4.47;;;1.60;;
16612;SDS011;8419;52.358;9.752;2024-02-16T06:42:11;2.12;;;1.50;;
16612;SDS011;8419;52.358;9.752;2024-02-16T06:44:57;4.05;;;1.40;;
16612;SDS011;8419;52.358;9.752;2024-02-16T06:47:42;2.28;;;1.10;;
16612;SDS011;8419;52.358;9.752;2024-02-16T06:50:27;4.72;;;1.37;;
16612;SDS011;8419;52.358;9.752;2024-02-16T06:53:13;3.42;;;1.40;;
16612;SDS011;8419;52.358;9.752;2024-02-16T06:55:59;4.35;;;1.35;;
16612;SDS011;8419;52.358;9.752;2024-02-16T06:58:47;5.20;;;1.20;;
16612;SDS011;8419;52.358;9.752;2024-02-16T07:01:33;2.03;;;1.50;;
16612;SDS011;8419;52.358;9.752;2024-02-16T07:04:18;2.03;;;1.10;;
16612;SDS011;8419;52.358;9.752;2024-02-16T07:07:04;1.83;;;1.20;;
16612;SDS011;8419;52.358;9.752;2024-02-16T07:09:51;3.95;;;1.50;;
16612;SDS011;8419;52.358;9.752;2024-02-16T07:12:37;3.42;;;1.12;;
16612;SDS011;8419;52.358;9.752;2024-02-16T07:15:23;3.20;;;1.60;;
16612;SDS011;8419;52.358;9.752;2024-02-16T07:18:10;4.12;;;1.40;;
16612;SDS011;8419;52.358;9.752;2024-02-16T07:20:57;1.58;;;1.30;;
16612;SDS011;8419;52.358;9.752;2024-02-16T07:23:43;1.92;;;1.10;;
16612;SDS011;8419;52.358;9.752;2024-02-16T07:26:29;2.72;;;1.42;;
16612;SDS011;8419;52.358;9.752;2024-02-16T07:29:18;4.25;;;1.33;;
16612;SDS011;8419;52.358;9.752;2024-02-16T07:32:04;2.30;;;1.40;;
16612;SDS011;8419;52.358;9.752;2024-02-16T07:34:49;3.65;;;1.35;;
16612;SDS011;8419;52.358;9.752;2024-02-16T07:37:35;1.70;;;1.50;;
16612;SDS011;8419;52.358;9.752;2024-02-16T07:40:21;9.20;;;2.33;;
16612;SDS011;8419;52.358;9.752;2024-02-16T07:43:07;6.68;;;1.77;;
16612;SDS011;8419;52.358;9.752;2024-02-16T07:45:53;3.12;;;1.40;;
16612;SDS011;8419;52.358;9.752;2024-02-16T07:48:38;3.60;;;2.10;;
16612;SDS011;8419;52.358;9.752;2024-02-16T07:51:25;2.97;;;1.45;;
16612;SDS011;8419;52.358;9.752;2024-02-16T07:54:11;3.78;;;1.90;;
16612;SDS011;8419;52.358;9.752;2024-02-16T07:56:56;4.95;;;1.98;;
16612;SDS011;8419;52.358;9.752;2024-02-16T07:59:44;4.70;;;1.87;;
16612;SDS011;8419;52.358;9.752;2024-02-16T08:02:29;1.40;;;1.30;;
16612;SDS011;8419;52.358;9.752;2024-02-16T08:05:16;3.03;;;1.62;;
16612;SDS011;8419;52.358;9.752;2024-02-16T08:08:03;2.50;;;1.73;;
16612;SDS011;8419;52.358;9.752;2024-02-16T08:10:49;3.25;;;1.48;;
16612;SDS011;8419;52.358;9.752;2024-02-16T08:13:35;1.55;;;1.30;;
16612;SDS011;8419;52.358;9.752;2024-02-16T08:16:21;1.87;;;1.45;;
16612;SDS011;8419;52.358;9.752;2024-02-16T08:19:07;2.47;;;1.30;;
16612;SDS011;8419;52.358;9.752;2024-02-16T08:21:55;5.68;;;2.45;;
16612;SDS011;8419;52.358;9.752;2024-02-16T08:24:40;4.82;;;1.65;;
16612;SDS011;8419;52.358;9.752;2024-02-16T08:27:30;2.58;;;1.50;;
16612;SDS011;8419;52.358;9.752;2024-02-16T08:30:16;2.12;;;1.35;;
16612;SDS011;8419;52.358;9.752;2024-02-16T08:33:02;7.93;;;1.80;;
16612;SDS011;8419;52.358;9.752;2024-02-16T08:35:49;2.12;;;1.50;;
16612;SDS011;8419;52.358;9.752;2024-02-16T08:38:37;4.30;;;1.73;;
16612;SDS011;8419;52.358;9.752;2024-02-16T08:41:22;2.12;;;1.40;;
16612;SDS011;8419;52.358;9.752;2024-02-16T08:44:09;3.55;;;1.40;;
16612;SDS011;8419;52.358;9.752;2024-02-16T08:46:55;3.28;;;1.58;;
16612;SDS011;8419;52.358;9.752;2024-02-16T08:49:40;2.90;;;1.30;;
16612;SDS011;8419;52.358;9.752;2024-02-16T08:52:27;3.17;;;1.52;;
16612;SDS011;8419;52.358;9.752;2024-02-16T08:55:12;2.65;;;1.60;;
16612;SDS011;8419;52.358;9.752;2024-02-16T08:57:58;2.28;;;1.50;;
16612;SDS011;8419;52.358;9.752;2024-02-16T09:00:44;3.58;;;1.50;;
16612;SDS011;8419;52.358;9.752;2024-02-16T09:03:30;4.00;;;1.58;;
16612;SDS011;8419;52.358;9.752;2024-02-16T09:06:21;5.50;;;1.10;;
16612;SDS011;8419;52.358;9.752;2024-02-16T09:09:06;1.98;;;1.73;;
16612;SDS011;8419;52.358;9.752;2024-02-16T09:11:52;3.62;;;1.40;;
16612;SDS011;8419;52.358;9.752;2024-02-16T09:14:37;3.75;;;1.45;;
16612;SDS011;8419;52.358;9.752;2024-02-16T09:17:23;2.00;;;1.27;;
16612;SDS011;8419;52.358;9.752;2024-02-16T09:20:10;2.67;;;1.65;;
16612;SDS011;8419;52.358;9.752;2024-02-16T09:22:56;2.45;;;1.83;;
16612;SDS011;8419;52.358;9.752;2024-02-16T09:25:43;5.30;;;1.42;;
16612;SDS011;8419;52.358;9.752;2024-02-16T09:28:30;4.60;;;1.58;;
16612;SDS011;8419;52.358;9.752;2024-02-16T09:31:16;5.87;;;1.62;;
16612;SDS011;8419;52.358;9.752;2024-02-16T09:34:02;5.28;;;1.77;;
16612;SDS011;8419;52.358;9.752;2024-02-16T09:36:48;3.30;;;1.73;;
16612;SDS011;8419;52.358;9.752;2024-02-16T09:39:34;3.05;;;1.42;;
16612;SDS011;8419;52.358;9.752;2024-02-16T09:42:19;1.90;;;1.48;;
16612;SDS011;8419;52.358;9.752;2024-02-16T09:45:08;1.98;;;1.40;;
16612;SDS011;8419;52.358;9.752;2024-02-16T09:47:56;3.10;;;1.58;;
16612;SDS011;8419;52.358;9.752;2024-02-16T09:50:42;1.10;;;1.00;;
16612;SDS011;8419;52.358;9.752;2024-02-16T09:53:30;2.42;;;1.40;;
16612;SDS011;8419;52.358;9.752;2024-02-16T09:56:15;3.22;;;1.30;;
16612;SDS011;8419;52.358;9.752;2024-02-16T09:59:01;3.87;;;1.65;;
16612;SDS011;8419;52.358;9.752;2024-02-16T10:01:46;1.62;;;1.00;;
16612;SDS011;8419;52.358;9.752;2024-02-16T10:04:32;3.78;;;1.50;;
16612;SDS011;8419;52.358;9.752;2024-02-16T10:07:17;1.70;;;1.40;;
16612;SDS011;8419;52.358;9.752;2024-02-16T10:10:03;2.28;;;1.20;;
16612;SDS011;8419;52.358;9.752;2024-02-16T10:12:49;1.83;;;1.15;;
16612;SDS011;8419;52.358;9.752;2024-02-16T10:15:35;1.48;;;1.25;;
16612;SDS011;8419;52.358;9.752;2024-02-16T10:18:20;2.20;;;1.50;;
16612;SDS011;8419;52.358;9.752;2024-02-16T10:21:07;2.60;;;1.15;;
16612;SDS011;8419;52.358;9.752;2024-02-16T10:24:04;1.83;;;1.27;;
16612;SDS011;8419;52.358;9.752;2024-02-16T10:26:58;3.40;;;1.35;;
16612;SDS011;8419;52.358;9.752;2024-02-16T10:29:44;2.85;;;1.25;;
16612;SDS011;8419;52.358;9.752;2024-02-16T10:32:34;3.75;;;1.80;;
16612;SDS011;8419;52.358;9.752;2024-02-16T10:35:20;1.92;;;1.42;;
16612;SDS011;8419;52.358;9.752;2024-02-16T10:38:11;2.25;;;1.30;;
16612;SDS011;8419;52.358;9.752;2024-02-16T10:40:58;3.00;;;1.50;;
16612;SDS011;8419;52.358;9.752;2024-02-16T10:43:46;2.75;;;1.55;;
16612;SDS011;8419;52.358;9.752;2024-02-16T10:46:33;3.47;;;1.30;;
16612;SDS011;8419;52.358;9.752;2024-02-16T10:49:19;1.55;;;1.27;;
16612;SDS011;8419;52.358;9.752;2024-02-16T10:52:04;3.62;;;1.40;;
16612;SDS011;8419;52.358;9.752;2024-02-16T10:54:52;4.18;;;1.67;;
16612;SDS011;8419;52.358;9.752;2024-02-16T10:57:39;3.28;;;1.23;;
16612;SDS011;8419;52.358;9.752;2024-02-16T11:00:25;2.05;;;1.42;;
16612;SDS011;8419;52.358;9.752;2024-02-16T11:03:15;2.72;;;1.40;;
16612;SDS011;8419;52.358;9.752;2024-02-16T11:06:02;1.80;;;1.40;;
16612;SDS011;8419;52.358;9.752;2024-02-16T11:09:02;1.83;;;1.20;;
16612;SDS011;8419;52.358;9.752;2024-02-16T11:11:54;2.75;;;1.60;;
16612;SDS011;8419;52.358;9.752;2024-02-16T11:14:44;2.70;;;1.25;;
16612;SDS011;8419;52.358;9.752;2024-02-16T11:17:32;7.18;;;1.42;;
16612;SDS011;8419;52.358;9.752;2024-02-16T11:20:23;2.10;;;1.40;;
16612;SDS011;8419;52.358;9.752;2024-02-16T11:23:12;1.58;;;1.33;;
16612;SDS011;8419;52.358;9.752;2024-02-16T11:26:18;2.05;;;1.40;;
16612;SDS011;8419;52.358;9.752;2024-02-16T11:33:02;3.08;;;1.40;;
16612;SDS011;8419;52.358;9.752;2024-02-16T11:35:53;2.72;;;1.40;;
16612;SDS011;8419;52.358;9.752;2024-02-16T11:38:55;2.60;;;1.90;;
16612;SDS011;8419;52.358;9.752;2024-02-16T11:41:43;2.03;;;1.40;;
16612;SDS011;8419;52.358;9.752;2024-02-16T11:44:33;1.50;;;1.23;;
16612;SDS011;8419;52.358;9.752;2024-02-16T11:47:20;3.25;;;1.52;;
16612;SDS011;8419;52.358;9.752;2024-02-16T11:50:11;3.00;;;1.30;;
16612;SDS011;8419;52.358;9.752;2024-02-16T11:52:58;5.40;;;1.60;;
16612;SDS011;8419;52.358;9.752;2024-02-16T11:55:46;1.87;;;1.40;;
16612;SDS011;8419;52.358;9.752;2024-02-16T11:58:33;2.28;;;1.37;;
16612;SDS011;8419;52.358;9.752;2024-02-16T12:01:26;2.28;;;1.45;;
16612;SDS011;8419;52.358;9.752;2024-02-16T12:07:22;5.85;;;2.17;;
16612;SDS011;8419;52.358;9.752;2024-02-16T12:10:41;4.15;;;1.80;;
16612;SDS011;8419;52.358;9.752;2024-02-16T12:13:27;3.67;;;1.55;;
16612;SDS011;8419;52.358;9.752;2024-02-16T12:16:13;6.80;;;1.75;;
16612;SDS011;8419;52.358;9.752;2024-02-16T12:19:20;2.67;;;1.30;;
16612;SDS011;8419;52.358;9.752;2024-02-16T12:22:09;3.70;;;1.65;;
16612;SDS011;8419;52.358;9.752;2024-02-16T12:24:55;3.33;;;1.55;;
16612;SDS011;8419;52.358;9.752;2024-02-16T12:27:43;3.05;;;1.60;;
16612;SDS011;8419;52.358;9.752;2024-02-16T12:30:28;2.92;;;1.67;;
16612;SDS011;8419;52.358;9.752;2024-02-16T12:33:17;4.32;;;1.70;;
16612;SDS011;8419;52.358;9.752;2024-02-16T12:36:02;3.28;;;1.48;;
16612;SDS011;8419;52.358;9.752;2024-02-16T12:38:48;3.42;;;1.65;;
16612;SDS011;8419;52.358;9.752;2024-02-16T12:41:35;2.78;;;1.70;;
16612;SDS011;8419;52.358;9.752;2024-02-16T12:44:22;5.53;;;1.37;;
16612;SDS011;8419;52.358;9.752;2024-02-16T12:47:08;2.30;;;1.55;;
16612;SDS011;8419;52.358;9.752;2024-02-16T12:49:55;2.85;;;1.70;;
16612;SDS011;8419;52.358;9.752;2024-02-16T12:52:47;2.42;;;1.60;;
16612;SDS011;8419;52.358;9.752;2024-02-16T12:55:34;2.97;;;1.65;;
16612;SDS011;8419;52.358;9.752;2024-02-16T12:58:20;3.75;;;1.75;;
16612;SDS011;8419;52.358;9.752;2024-02-16T13:01:10;4.45;;;1.60;;
16612;SDS011;8419;52.358;9.752;2024-02-16T13:04:23;3.83;;;1.62;;
16612;SDS011;8419;52.358;9.752;2024-02-16T13:07:55;4.78;;;1.50;;
16612;SDS011;8419;52.358;9.752;2024-02-16T13:11:02;2.92;;;1.50;;
16612;SDS011;8419;52.358;9.752;2024-02-16T13:13:49;3.92;;;1.83;;
16612;SDS011;8419;52.358;9.752;2024-02-16T13:16:37;2.92;;;1.87;;
16612;SDS011;8419;52.358;9.752;2024-02-16T13:19:27;4.45;;;1.90;;
16612;SDS011;8419;52.358;9.752;2024-02-16T13:22:13;5.30;;;2.40;;
16612;SDS011;8419;52.358;9.752;2024-02-16T13:25:04;2.87;;;1.95;;
16612;SDS011;8419;52.358;9.752;2024-02-16T13:27:51;3.83;;;1.73;;
16612;SDS011;8419;52.358;9.752;2024-02-16T13:30:36;5.20;;;2.17;;
16612;SDS011;8419;52.358;9.752;2024-02-16T13:33:23;4.07;;;2.15;;
16612;SDS011;8419;52.358;9.752;2024-02-16T13:36:09;2.00;;;0.80;;
16612;SDS011;8419;52.358;9.752;2024-02-16T13:38:58;3.05;;;1.83;;
16612;SDS011;8419;52.358;9.752;2024-02-16T13:41:46;4.62;;;2.00;;
16612;SDS011;8419;52.358;9.752;2024-02-16T13:44:37;4.45;;;2.05;;
16612;SDS011;8419;52.358;9.752;2024-02-16T13:47:26;4.25;;;1.33;;
16612;SDS011;8419;52.358;9.752;2024-02-16T13:50:11;3.87;;;1.75;;
16612;SDS011;8419;52.358;9.752;2024-02-16T13:52:58;3.90;;;1.92;;
16612;SDS011;8419;52.358;9.752;2024-02-16T13:55:45;5.32;;;1.83;;
16612;SDS011;8419;52.358;9.752;2024-02-16T13:58:33;2.10;;;1.48;;
16612;SDS011;8419;52.358;9.752;2024-02-16T14:01:20;2.30;;;1.65;;
16612;SDS011;8419;52.358;9.752;2024-02-16T14:04:14;2.17;;;1.35;;
16612;SDS011;8419;52.358;9.752;2024-02-16T14:07:00;2.55;;;1.23;;
16612;SDS011;8419;52.358;9.752;2024-02-16T14:09:48;2.40;;;2.12;;
16612;SDS011;8419;52.358;9.752;2024-02-16T14:12:34;2.45;;;1.45;;
16612;SDS011;8419;52.358;9.752;2024-02-16T14:15:21;4.82;;;1.87;;
16612;SDS011;8419;52.358;9.752;2024-02-16T14:18:10;4.07;;;1.42;;
16612;SDS011;8419;52.358;9.752;2024-02-16T14:20:59;5.25;;;2.20;;
16612;SDS011;8419;52.358;9.752;2024-02-16T14:23:46;2.55;;;1.50;;
16612;SDS011;8419;52.358;9.752;2024-02-16T14:26:34;3.58;;;1.77;;
16612;SDS011;8419;52.358;9.752;2024-02-16T14:29:28;9.73;;;2.45;;
16612;SDS011;8419;52.358;9.752;2024-02-16T14:32:13;3.75;;;2.42;;
16612;SDS011;8419;52.358;9.752;2024-02-16T14:35:03;1.70;;;1.25;;
16612;SDS011;8419;52.358;9.752;2024-02-16T14:37:51;3.45;;;2.20;;
16612;SDS011;8419;52.358;9.752;2024-02-16T14:40:48;5.53;;;2.50;;
16612;SDS011;8419;52.358;9.752;2024-02-16T14:43:34;5.72;;;2.50;;
16612;SDS011;8419;52.358;9.752;2024-02-16T14:46:25;3.28;;;2.58;;
16612;SDS011;8419;52.358;9.752;2024-02-16T14:49:11;2.67;;;2.40;;
16612;SDS011;8419;52.358;9.752;2024-02-16T14:52:05;5.60;;;2.35;;
16612;SDS011;8419;52.358;9.752;2024-02-16T14:54:55;1.30;;;1.12;;
16612;SDS011;8419;52.358;9.752;2024-02-16T14:57:41;1.30;;;1.20;;
16612;SDS011;8419;52.358;9.752;2024-02-16T15:00:30;4.15;;;2.87;;
16612;SDS011;8419;52.358;9.752;2024-02-16T15:03:18;5.20;;;2.83;;
16612;SDS011;8419;52.358;9.752;2024-02-16T15:06:05;5.70;;;3.22;;
16612;SDS011;8419;52.358;9.752;2024-02-16T15:08:51;5.85;;;3.20;;
16612;SDS011;8419;52.358;9.752;2024-02-16T15:11:38;2.95;;;1.90;;
16612;SDS011;8419;52.358;9.752;2024-02-16T15:14:24;3.87;;;2.45;;
16612;SDS011;8419;52.358;9.752;2024-02-16T15:17:10;4.43;;;2.90;;
16612;SDS011;8419;52.358;9.752;2024-02-16T15:19:57;7.57;;;3.47;;
16612;SDS011;8419;52.358;9.752;2024-02-16T15:22:49;3.62;;;2.62;;
16612;SDS011;8419;52.358;9.752;2024-02-16T15:25:36;5.53;;;3.22;;
16612;SDS011;8419;52.358;9.752;2024-02-16T15:28:25;7.72;;;3.47;;
16612;SDS011;8419;52.358;9.752;2024-02-16T15:31:13;7.03;;;4.10;;
16612;SDS011;8419;52.358;9.752;2024-02-16T15:34:00;3.60;;;2.30;;
16612;SDS011;8419;52.358;9.752;2024-02-16T15:36:45;7.25;;;2.60;;
16612;SDS011;8419;52.358;9.752;2024-02-16T15:39:31;4.40;;;2.95;;
16612;SDS011;8419;52.358;9.752;2024-02-16T15:42:18;6.37;;;3.70;;
16612;SDS011;8419;52.358;9.752;2024-02-16T15:45:05;6.82;;;5.18;;
16612;SDS011;8419;52.358;9.752;2024-02-16T15:47:52;8.55;;;5.32;;
16612;SDS011;8419;52.358;9.752;2024-02-16T15:50:38;6.05;;;4.82;;
16612;SDS011;8419;52.358;9.752;2024-02-16T15:53:29;3.83;;;2.87;;
16612;SDS011;8419;52.358;9.752;2024-02-16T15:56:15;7.43;;;4.93;;
16612;SDS011;8419;52.358;9.752;2024-02-16T15:59:00;8.68;;;5.35;;
16612;SDS011;8419;52.358;9.752;2024-02-16T16:01:46;8.02;;;6.37;;
16612;SDS011;8419;52.358;9.752;2024-02-16T16:04:31;10.45;;;4.78;;
16612;SDS011;8419;52.358;9.752;2024-02-16T16:07:19;8.05;;;6.82;;
16612;SDS011;8419;52.358;9.752;2024-02-16T16:10:09;13.10;;;7.20;;
16612;SDS011;8419;52.358;9.752;2024-02-16T16:12:55;9.73;;;6.62;;
16612;SDS011;8419;52.358;9.752;2024-02-16T16:15:42;6.30;;;4.37;;
16612;SDS011;8419;52.358;9.752;2024-02-16T16:18:29;11.98;;;6.87;;
16612;SDS011;8419;52.358;9.752;2024-02-16T16:21:19;6.37;;;4.60;;
16612;SDS011;8419;52.358;9.752;2024-02-16T16:24:05;8.68;;;6.87;;
16612;SDS011;8419;52.358;9.752;2024-02-16T16:26:57;5.80;;;4.55;;
16612;SDS011;8419;52.358;9.752;2024-02-16T16:29:43;6.40;;;5.12;;
16612;SDS011;8419;52.358;9.752;2024-02-16T16:32:34;4.55;;;3.47;;
16612;SDS011;8419;52.358;9.752;2024-02-16T16:35:26;6.35;;;5.00;;
16612;SDS011;8419;52.358;9.752;2024-02-16T16:38:11;7.35;;;5.32;;
16612;SDS011;8419;52.358;9.752;2024-02-16T16:41:12;7.03;;;5.47;;
16612;SDS011;8419;52.358;9.752;2024-02-16T16:43:59;6.80;;;3.62;;
16612;SDS011;8419;52.358;9.752;2024-02-16T16:46:44;6.03;;;4.40;;
16612;SDS011;8419;52.358;9.752;2024-02-16T16:49:30;5.07;;;3.60;;
16612;SDS011;8419;52.358;9.752;2024-02-16T16:52:16;8.60;;;5.45;;
16612;SDS011;8419;52.358;9.752;2024-02-16T16:55:01;5.40;;;4.82;;
16612;SDS011;8419;52.358;9.752;2024-02-16T16:57:48;6.70;;;4.20;;
16612;SDS011;8419;52.358;9.752;2024-02-16T17:00:33;5.85;;;4.25;;
16612;SDS011;8419;52.358;9.752;2024-02-16T17:03:21;7.05;;;3.22;;
16612;SDS011;8419;52.358;9.752;2024-02-16T17:06:07;5.87;;;3.60;;
16612;SDS011;8419;52.358;9.752;2024-02-16T17:08:56;4.47;;;3.28;;